Strona główna
METAR-TAF:

METAR-TAF

Lotnisko :

Port lotniczy Lugano

Lugano, Szwajcaria

Szerokość geograficzna: 46-00N, Długość geograficzna: 008-58E, wysokość: 273 m

Aktualna obserwacja pogody

Raport powstał 21 minut temu, godzina 22:20 UTC
Wiatr 1 kt z kierunków zmiennych
Temperatura -2°C
Wilgotność 80%
Ciśnienie 1023 hPa
Widzialność 10 km lub więcej
Brak chmur poniżej 1500 m i brak chmur cumulonimbus

METAR: LSZA 102220Z AUTO VRB01KT CAVOK M02/M05 Q1023

czas: 23:41 (22:41 UTC)

Prognoza

Raport powstał 8 godziny i 16 minut temu, godzina 14:25 UTC
Prognoza ważna od 10 godzina 15 UTC do 10 godzina 24 UTC
Wiatr 15 kt od północ
Widzialność 10 km lub więcej
Brak chmur poniżej 1500 m i brak chmur cumulonimbus
Stopniowe zmiany
od 10 godzina 15 UTC do 10 godzina 18 UTC
Wiatr 7 kt od północ

TAF: LSZA 101425Z 1015/1024 01015KT CAVOK BECMG 1015/1018 01007KT

Obserwacja i prognoza pogody dla ponad 4000 lotnisk (raport METAR i TAF).

Dostępne stacje oznaczono żółtymi i czerwonymi punktami na mapie.

Najedź kursorem aby zobaczyć nazwę stacji.

Kliknij aby zobaczyć obserwacje i prognozy pogody.

Aby zmienić mapę: kliknij na zielony przycisk z czarnym krzyżykiem, aby powiększyć; na zielony przycisk z myślnikiem, aby pomniejszyć; na zielone strzałki, aby przejść do map sąsiednich.


METAR-TAF: